Camellia — VRCP9 — position and weather

sailwx.info

Track history (hours):
 
Tides and Currents Weather Stations Pressure Air Temp Water Temp Dewpoint Dewpoint Depression Visibility Wind Speed Wind Dir Waves Ship Positions

Camellia

Last reported at 2014-Oct-31 00:10 UTC. Time now 2014-Oct-31 12:12 UTC.
Position N 35°55' W 006°35'.

Length 222 m; draft 11.1 m.

Type: Ship (hazmat cat C). MMSI: 477791900.

Date/timePositionNaut miles runAvg speedWind from/ knotsBaromVisibWave heightAir tempDewpointWater temp
2014-Oct-31 00:10N 35°55' W 006°35'9719.3
2014-Oct-30 19:09N 36°22' W 008°30'1420.1
2014-Oct-30 18:28N 36°26' W 008°46'1820.2
2014-Oct-30 17:33N 36°32' W 009°09'1919.1
2014-Oct-30 16:33N 36°43' W 009°28'2218.5
2014-Oct-30 15:21N 37°04' W 009°38'5619.6
2014-Oct-30 12:29N 37°58' W 009°53'2820.6
2014-Oct-30 11:07N 38°26' W 010°01'1220.4
2014-Oct-30 10:31N 38°38' W 010°05'55719.9
2014-Oct-29 06:33N 47°36' W 006°50'19319.3
2014-Oct-28 20:32N 49°50' W 003°19'2019.2
2014-Oct-28 19:31N 49°59' W 002°52'1819.1
2014-Oct-28 18:34N 50°04' W 002°25'4521.2
2014-Oct-28 16:26N 50°16' W 001°16'2023.3
2014-Oct-28 15:33N 50°22' W 000°46'2521.5
2014-Oct-28 14:23N 50°29' W 000°08'1719.9
2014-Oct-28 13:33N 50°34' E 000°16'1919.1
2014-Oct-28 12:33N 50°40' E 000°45'1918.7
2014-Oct-28 11:33N 50°51' E 001°09'2120.8
2014-Oct-28 10:34N 51°05' E 001°33'2222.2
2014-Oct-28 09:33N 51°23' E 001°53'2020.2
2014-Oct-28 08:33N 51°43' E 001°45'9 9.0
2014-Oct-28 07:34N 51°48' E 001°33'1717.1
2014-Oct-28 06:33N 51°35' E 001°15'1717.0
2014-Oct-28 05:33N 51°29' E 000°49'1313.1
2014-Oct-28 04:33N 51°29' E 000°28'5 5.4
2014-Oct-28 03:34N 51°27' E 000°20'0 0.0
2014-Oct-28 02:34N 51°27' E 000°20'0 0.0
2014-Oct-28 01:34N 51°27' E 000°20'0 0.0
2014-Oct-28 00:34N 51°27' E 000°20'0 0.0
2014-Oct-27 23:34N 51°27' E 000°20'0 0.0
2014-Oct-27 22:34N 51°27' E 000°20'0 0.0
2014-Oct-27 21:34N 51°27' E 000°20'0 0.0
2014-Oct-27 20:33N 51°27' E 000°20'0 0.0
2014-Oct-27 19:34N 51°27' E 000°20'0 0.0
2014-Oct-27 18:34N 51°27' E 000°20'0 0.0
2014-Oct-27 17:34N 51°27' E 000°20'0 0.0
2014-Oct-27 16:34N 51°27' E 000°20'0 0.0
2014-Oct-27 15:34N 51°27' E 000°20'0 0.0
2014-Oct-27 14:34N 51°27' E 000°20'0 0.0
2014-Oct-27 13:34N 51°27' E 000°20'0 0.0
2014-Oct-27 12:34N 51°27' E 000°20'6 5.9
2014-Oct-27 11:34N 51°30' E 000°29'1413.5
2014-Oct-27 10:33N 51°29' E 000°50'1615.8
2014-Oct-27 09:33N 51°35' E 001°14'1616.2
2014-Oct-27 08:33N 51°46' E 001°32'8 7.7
2014-Oct-27 07:33N 51°52' E 001°41'1 1.2
2014-Oct-27 06:31N 51°53' E 001°41'0 0.0
2014-Oct-27 05:31N 51°53' E 001°41'0 0.0
2014-Oct-27 04:31N 51°53' E 001°41'0 0.0
2014-Oct-27 03:31N 51°53' E 001°41'0 0.0
2014-Oct-27 02:31N 51°53' E 001°41'0 0.0
2014-Oct-27 01:31N 51°53' E 001°41'0 0.2
2014-Oct-27 00:31N 51°53' E 001°41'0 0.1
2014-Oct-26 23:31N 51°53' E 001°41'0 0.0
2014-Oct-26 22:31N 51°53' E 001°41'0 0.0
2014-Oct-26 21:31N 51°53' E 001°41'0 0.1
2014-Oct-26 20:31N 51°53' E 001°41'0 0.3
2014-Oct-26 19:31N 51°53' E 001°41'0 0.0
2014-Oct-26 18:31N 51°53' E 001°41'0 0.0
2014-Oct-26 17:31N 51°53' E 001°41'0 0.0
2014-Oct-26 16:31N 51°53' E 001°41'0 0.0
2014-Oct-26 15:31N 51°53' E 001°41'0 0.0
2014-Oct-26 14:31N 51°53' E 001°41'0 0.0
2014-Oct-26 13:31N 51°53' E 001°41'0 0.0
2014-Oct-26 12:31N 51°53' E 001°41'0 0.3
2014-Oct-26 11:31N 51°53' E 001°41'0 0.2
2014-Oct-26 10:33N 51°53' E 001°41'3 2.8
2014-Oct-26 09:34N 51°52' E 001°45'1 0.9
2014-Oct-26 08:33N 51°52' E 001°46'3 3.0
2014-Oct-26 07:33N 51°49' E 001°48'6 5.6
2014-Oct-26 06:33N 51°43' E 001°49'6 5.8
2014-Oct-26 05:34N 51°38' E 001°51'3 3.1
2014-Oct-26 04:34N 51°35' E 001°54'2 2.0
2014-Oct-26 03:34N 51°34' E 001°52'4 3.7
2014-Oct-26 02:33N 51°36' E 001°57'1 1.0
2014-Oct-26 01:30N 51°35' E 001°57'2 2.1
2014-Oct-26 00:34N 51°34' E 001°55'2 1.5
2014-Oct-25 23:34N 51°33' E 001°53'1 0.5
2014-Oct-25 22:34N 51°33' E 001°52'2 2.4
2014-Oct-25 21:33N 51°31' E 001°54'4 3.9
2014-Oct-25 20:34N 51°27' E 001°56'4 4.3
2014-Oct-25 19:33N 51°24' E 002°01'5 5.3
2014-Oct-25 18:32N 51°22' E 002°09'5 5.4
2014-Oct-25 17:33N 51°20' E 002°17'5 4.9
2014-Oct-25 16:33N 51°22' E 002°25'5 4.4
2014-Oct-25 15:27N 51°23' E 002°32'4 4.0
2014-Oct-25 14:30N 51°23' E 002°38'4 3.9
2014-Oct-25 13:30N 51°23' E 002°45'1212.8
2014-Oct-25 12:32N 51°25' E 003°04'1414.6
2014-Oct-25 11:34N 51°25' E 003°27'1010.3
2014-Oct-25 10:33N 51°23' E 003°43'1211.9
2014-Oct-25 09:33N 51°25' E 004°02'1110.8
2014-Oct-25 08:34N 51°19' E 004°16'1 1.2
2014-Oct-25 07:32N 51°18' E 004°16'0 0.0
2014-Oct-25 06:32N 51°18' E 004°16'0 0.0
2014-Oct-25 05:32N 51°18' E 004°16'0 0.0
2014-Oct-25 04:29N 51°18' E 004°16'0 0.0
2014-Oct-25 03:29N 51°18' E 004°16'0 0.0
2014-Oct-25 02:29N 51°18' E 004°16'0 0.0
2014-Oct-25 01:26N 51°18' E 004°16'0 0.0
2014-Oct-25 00:32N 51°18' E 004°16'0 0.0
2014-Oct-24 23:26N 51°18' E 004°16'0 0.0
2014-Oct-24 22:32N 51°18' E 004°16'0 0.0
2014-Oct-24 21:32N 51°18' E 004°16'0 0.0
2014-Oct-24 20:29N 51°18' E 004°16'0 0.1
2014-Oct-24 19:34N 51°18' E 004°16'5 5.2
2014-Oct-24 18:33N 51°22' E 004°13'9 9.0
2014-Oct-24 17:33N 51°26' E 003°60'10 9.6
2014-Oct-24 16:33N 51°21' E 003°46'10 9.6
2014-Oct-24 15:33N 51°25' E 003°32'1817.6
2014-Oct-24 14:33N 51°24' E 003°04'1313.4
2014-Oct-24 13:33N 51°37' E 003°11'1212.2
2014-Oct-24 12:33N 51°49' E 003°16'1212.1
2014-Oct-24 11:33N 52°01' E 003°20'1313.3
2014-Oct-24 10:33N 52°14' E 003°22'1313.5
2014-Oct-24 09:33N 52°27' E 003°27'1413.7
2014-Oct-24 08:33N 52°40' E 003°34'1414.1
2014-Oct-24 07:33N 52°51' E 003°49'1414.1
2014-Oct-24 06:33N 53°01' E 004°05'1414.0
2014-Oct-24 05:33N 53°10' E 004°23'1414.3
2014-Oct-24 04:33N 53°23' E 004°33'1313.0
2014-Oct-24 03:32N 53°31' E 004°50'1312.9
2014-Oct-24 02:33N 53°36' E 005°10'1413.8
2014-Oct-24 01:32N 53°41' E 005°32'1413.9
2014-Oct-24 00:33N 53°44' E 005°55'5814.2
2014-Oct-23 20:28N 53°60' E 007°29'1213.7
2014-Oct-23 19:33N 54°02' E 007°50'1413.8
2014-Oct-23 18:31N 54°00' E 008°15'1616.6
2014-Oct-23 17:33N 53°55' E 008°40'1514.8
2014-Oct-23 16:33N 53°53' E 009°05'1614.8
2014-Oct-23 15:30N 53°44' E 009°27'1313.5
2014-Oct-23 14:33N 53°34' E 009°41'8 7.9
2014-Oct-23 13:33N 53°32' E 009°54'1 0.6
2014-Oct-23 12:23N 53°32' E 009°55'0 0.0
2014-Oct-23 11:32N 53°32' E 009°55'0 0.0
2014-Oct-23 10:29N 53°32' E 009°55'0 0.0
2014-Oct-23 09:32N 53°32' E 009°55'0 0.0
2014-Oct-23 08:29N 53°32' E 009°55'0 0.0
2014-Oct-23 07:29N 53°32' E 009°55'0 0.0
2014-Oct-23 06:32N 53°32' E 009°55'0 0.0
2014-Oct-23 05:29N 53°32' E 009°55'0 0.0
2014-Oct-23 04:29N 53°32' E 009°55'0 0.0
2014-Oct-23 03:29N 53°32' E 009°55'0 0.0
2014-Oct-23 02:32N 53°32' E 009°55'0 0.0
2014-Oct-23 01:29N 53°32' E 009°55'3 3.3
2014-Oct-23 00:34N 53°33' E 009°50'1111.3
2014-Oct-22 23:33N 53°37' E 009°33'1313.0
2014-Oct-22 22:33N 53°49' E 009°22'1212.4
2014-Oct-22 21:33N 53°51' E 009°02'1312.7
2014-Oct-22 20:33N 53°55' E 008°41'2512.4
2014-Oct-22 18:33N 53°59' E 007°59'9 9.0
2014-Oct-22 17:33N 54°03' E 007°45'9 9.1
2014-Oct-22 16:33N 54°08' E 007°33'3 2.7
2014-Oct-22 15:33N 54°10' E 007°29'3 3.4
2014-Oct-22 14:33N 54°07' E 007°32'5 4.8
2014-Oct-22 13:33N 54°03' E 007°37'2 2.5
2014-Oct-22 12:33N 54°02' E 007°41'3 2.9
2014-Oct-22 11:33N 54°02' E 007°46'4 4.2
2014-Oct-22 10:33N 53°60' E 007°53'3 3.1
2014-Oct-22 09:31N 53°59' E 007°58'3 3.0
2014-Oct-22 08:32N 53°58' E 008°03'5 4.8
2014-Oct-22 07:33N 53°57' E 007°55'1110.8
2014-Oct-22 06:32N 53°55' E 007°37'2116.6
2014-Oct-22 05:18N 53°50' E 007°03'1316.8
2014-Oct-22 04:33N 53°48' E 006°42'1918.7
2014-Oct-22 03:33N 53°42' E 006°12'2019.8
2014-Oct-22 02:33N 53°37' E 005°40'1919.4
2014-Oct-22 01:33N 53°30' E 005°09'1818.3
2014-Oct-22 00:33N 53°23' E 004°41'1212.2
2014-Oct-21 23:34N 53°11' E 004°34'1515.3
2014-Oct-21 22:33N 52°58' E 004°20'1514.6
2014-Oct-21 21:32N 52°46' E 004°07'1616.0
2014-Oct-21 20:33N 52°36' E 003°47'1817.8
2014-Oct-21 19:33N 52°23' E 003°26'5517.7
2014-Oct-21 16:26N 51°35' E 002°44'1213.4
2014-Oct-21 15:33N 51°23' E 002°43'1313.3
2014-Oct-21 14:33N 51°25' E 003°04'1616.1
2014-Oct-21 13:34N 51°25' E 003°30'8 7.9
2014-Oct-21 12:33N 51°25' E 003°43'10 9.9
2014-Oct-21 11:34N 51°26' E 003°58'10 9.9
2014-Oct-21 10:34N 51°22' E 004°13'3 2.9
2014-Oct-21 09:33N 51°21' E 004°17'0 0.0
2014-Oct-21 08:34N 51°21' E 004°17'2 1.9
2014-Oct-21 07:33N 51°19' E 004°19'3 3.1
2014-Oct-21 06:33N 51°17' E 004°22'0 0.0
2014-Oct-21 05:33N 51°17' E 004°22'0 0.0
2014-Oct-21 04:33N 51°17' E 004°22'0 0.0
2014-Oct-21 03:33N 51°17' E 004°22'0 0.0
2014-Oct-21 02:33N 51°17' E 004°22'0 0.0
2014-Oct-21 01:33N 51°17' E 004°22'0 0.0
2014-Oct-21 00:33N 51°17' E 004°22'  
Track history (hours):
 
Tides and Currents Weather Stations Pressure Air Temp Water Temp Dewpoint Dewpoint Depression Visibility Wind Speed Wind Dir Waves Ship Positions

Camellia

Last reported at 2014-Oct-31 00:10 UTC. Time now 2014-Oct-31 12:12 UTC.
Position N 35°55' W 006°35'.

Length 222 m; draft 11.1 m.

Type: Ship (hazmat cat C). MMSI: 477791900.

Date/timePositionNaut miles runAvg speedWind from/ knotsBaromVisibWave heightAir tempDewpointWater temp
2014-Oct-31 00:10N 35°55' W 006°35'9719.3
2014-Oct-30 19:09N 36°22' W 008°30'1420.1
2014-Oct-30 18:28N 36°26' W 008°46'1820.2
2014-Oct-30 17:33N 36°32' W 009°09'1919.1
2014-Oct-30 16:33N 36°43' W 009°28'2218.5
2014-Oct-30 15:21N 37°04' W 009°38'5619.6
2014-Oct-30 12:29N 37°58' W 009°53'2820.6
2014-Oct-30 11:07N 38°26' W 010°01'1220.4
2014-Oct-30 10:31N 38°38' W 010°05'55719.9
2014-Oct-29 06:33N 47°36' W 006°50'19319.3
2014-Oct-28 20:32N 49°50' W 003°19'2019.2
2014-Oct-28 19:31N 49°59' W 002°52'1819.1
2014-Oct-28 18:34N 50°04' W 002°25'4521.2
2014-Oct-28 16:26N 50°16' W 001°16'2023.3
2014-Oct-28 15:33N 50°22' W 000°46'2521.5
2014-Oct-28 14:23N 50°29' W 000°08'1719.9
2014-Oct-28 13:33N 50°34' E 000°16'1919.1
2014-Oct-28 12:33N 50°40' E 000°45'1918.7
2014-Oct-28 11:33N 50°51' E 001°09'2120.8
2014-Oct-28 10:34N 51°05' E 001°33'2222.2
2014-Oct-28 09:33N 51°23' E 001°53'2020.2
2014-Oct-28 08:33N 51°43' E 001°45'9 9.0
2014-Oct-28 07:34N 51°48' E 001°33'1717.1
2014-Oct-28 06:33N 51°35' E 001°15'1717.0
2014-Oct-28 05:33N 51°29' E 000°49'1313.1
2014-Oct-28 04:33N 51°29' E 000°28'5 5.4
2014-Oct-28 03:34N 51°27' E 000°20'0 0.0
2014-Oct-28 02:34N 51°27' E 000°20'0 0.0
2014-Oct-28 01:34N 51°27' E 000°20'0 0.0
2014-Oct-28 00:34N 51°27' E 000°20'0 0.0
2014-Oct-27 23:34N 51°27' E 000°20'0 0.0
2014-Oct-27 22:34N 51°27' E 000°20'0 0.0
2014-Oct-27 21:34N 51°27' E 000°20'0 0.0
2014-Oct-27 20:33N 51°27' E 000°20'0 0.0
2014-Oct-27 19:34N 51°27' E 000°20'0 0.0
2014-Oct-27 18:34N 51°27' E 000°20'0 0.0
2014-Oct-27 17:34N 51°27' E 000°20'0 0.0
2014-Oct-27 16:34N 51°27' E 000°20'0 0.0
2014-Oct-27 15:34N 51°27' E 000°20'0 0.0
2014-Oct-27 14:34N 51°27' E 000°20'0 0.0
2014-Oct-27 13:34N 51°27' E 000°20'0 0.0
2014-Oct-27 12:34N 51°27' E 000°20'6 5.9
2014-Oct-27 11:34N 51°30' E 000°29'1413.5
2014-Oct-27 10:33N 51°29' E 000°50'1615.8
2014-Oct-27 09:33N 51°35' E 001°14'1616.2
2014-Oct-27 08:33N 51°46' E 001°32'8 7.7
2014-Oct-27 07:33N 51°52' E 001°41'1 1.2
2014-Oct-27 06:31N 51°53' E 001°41'0 0.0
2014-Oct-27 05:31N 51°53' E 001°41'0 0.0
2014-Oct-27 04:31N 51°53' E 001°41'0 0.0
2014-Oct-27 03:31N 51°53' E 001°41'0 0.0
2014-Oct-27 02:31N 51°53' E 001°41'0 0.0
2014-Oct-27 01:31N 51°53' E 001°41'0 0.2
2014-Oct-27 00:31N 51°53' E 001°41'0 0.1
2014-Oct-26 23:31N 51°53' E 001°41'0 0.0
2014-Oct-26 22:31N 51°53' E 001°41'0 0.0
2014-Oct-26 21:31N 51°53' E 001°41'0 0.1
2014-Oct-26 20:31N 51°53' E 001°41'0 0.3
2014-Oct-26 19:31N 51°53' E 001°41'0 0.0
2014-Oct-26 18:31N 51°53' E 001°41'0 0.0
2014-Oct-26 17:31N 51°53' E 001°41'0 0.0
2014-Oct-26 16:31N 51°53' E 001°41'0 0.0
2014-Oct-26 15:31N 51°53' E 001°41'0 0.0
2014-Oct-26 14:31N 51°53' E 001°41'0 0.0
2014-Oct-26 13:31N 51°53' E 001°41'0 0.0
2014-Oct-26 12:31N 51°53' E 001°41'0 0.3
2014-Oct-26 11:31N 51°53' E 001°41'0 0.2
2014-Oct-26 10:33N 51°53' E 001°41'3 2.8
2014-Oct-26 09:34N 51°52' E 001°45'1 0.9
2014-Oct-26 08:33N 51°52' E 001°46'3 3.0
2014-Oct-26 07:33N 51°49' E 001°48'6 5.6
2014-Oct-26 06:33N 51°43' E 001°49'6 5.8
2014-Oct-26 05:34N 51°38' E 001°51'3 3.1
2014-Oct-26 04:34N 51°35' E 001°54'2 2.0
2014-Oct-26 03:34N 51°34' E 001°52'4 3.7
2014-Oct-26 02:33N 51°36' E 001°57'1 1.0
2014-Oct-26 01:30N 51°35' E 001°57'2 2.1
2014-Oct-26 00:34N 51°34' E 001°55'2 1.5
2014-Oct-25 23:34N 51°33' E 001°53'1 0.5
2014-Oct-25 22:34N 51°33' E 001°52'2 2.4
2014-Oct-25 21:33N 51°31' E 001°54'4 3.9
2014-Oct-25 20:34N 51°27' E 001°56'4 4.3
2014-Oct-25 19:33N 51°24' E 002°01'5 5.3
2014-Oct-25 18:32N 51°22' E 002°09'5 5.4
2014-Oct-25 17:33N 51°20' E 002°17'5 4.9
2014-Oct-25 16:33N 51°22' E 002°25'5 4.4
2014-Oct-25 15:27N 51°23' E 002°32'4 4.0
2014-Oct-25 14:30N 51°23' E 002°38'4 3.9
2014-Oct-25 13:30N 51°23' E 002°45'1212.8
2014-Oct-25 12:32N 51°25' E 003°04'1414.6
2014-Oct-25 11:34N 51°25' E 003°27'1010.3
2014-Oct-25 10:33N 51°23' E 003°43'1211.9
2014-Oct-25 09:33N 51°25' E 004°02'1110.8
2014-Oct-25 08:34N 51°19' E 004°16'1 1.2
2014-Oct-25 07:32N 51°18' E 004°16'0 0.0
2014-Oct-25 06:32N 51°18' E 004°16'0 0.0
2014-Oct-25 05:32N 51°18' E 004°16'0 0.0
2014-Oct-25 04:29N 51°18' E 004°16'0 0.0
2014-Oct-25 03:29N 51°18' E 004°16'0 0.0
2014-Oct-25 02:29N 51°18' E 004°16'0 0.0
2014-Oct-25 01:26N 51°18' E 004°16'0 0.0
2014-Oct-25 00:32N 51°18' E 004°16'0 0.0
2014-Oct-24 23:26N 51°18' E 004°16'0 0.0
2014-Oct-24 22:32N 51°18' E 004°16'0 0.0
2014-Oct-24 21:32N 51°18' E 004°16'0 0.0
2014-Oct-24 20:29N 51°18' E 004°16'0 0.1
2014-Oct-24 19:34N 51°18' E 004°16'5 5.2
2014-Oct-24 18:33N 51°22' E 004°13'9 9.0
2014-Oct-24 17:33N 51°26' E 003°60'10 9.6
2014-Oct-24 16:33N 51°21' E 003°46'10 9.6
2014-Oct-24 15:33N 51°25' E 003°32'1817.6
2014-Oct-24 14:33N 51°24' E 003°04'1313.4
2014-Oct-24 13:33N 51°37' E 003°11'1212.2
2014-Oct-24 12:33N 51°49' E 003°16'1212.1
2014-Oct-24 11:33N 52°01' E 003°20'1313.3
2014-Oct-24 10:33N 52°14' E 003°22'1313.5
2014-Oct-24 09:33N 52°27' E 003°27'1413.7
2014-Oct-24 08:33N 52°40' E 003°34'1414.1
2014-Oct-24 07:33N 52°51' E 003°49'1414.1
2014-Oct-24 06:33N 53°01' E 004°05'1414.0
2014-Oct-24 05:33N 53°10' E 004°23'1414.3
2014-Oct-24 04:33N 53°23' E 004°33'1313.0
2014-Oct-24 03:32N 53°31' E 004°50'1312.9
2014-Oct-24 02:33N 53°36' E 005°10'1413.8
2014-Oct-24 01:32N 53°41' E 005°32'1413.9
2014-Oct-24 00:33N 53°44' E 005°55'5814.2
2014-Oct-23 20:28N 53°60' E 007°29'1213.7
2014-Oct-23 19:33N 54°02' E 007°50'1413.8
2014-Oct-23 18:31N 54°00' E 008°15'1616.6
2014-Oct-23 17:33N 53°55' E 008°40'1514.8
2014-Oct-23 16:33N 53°53' E 009°05'1614.8
2014-Oct-23 15:30N 53°44' E 009°27'1313.5
2014-Oct-23 14:33N 53°34' E 009°41'8 7.9
2014-Oct-23 13:33N 53°32' E 009°54'1 0.6
2014-Oct-23 12:23N 53°32' E 009°55'0 0.0
2014-Oct-23 11:32N 53°32' E 009°55'0 0.0
2014-Oct-23 10:29N 53°32' E 009°55'0 0.0
2014-Oct-23 09:32N 53°32' E 009°55'0 0.0
2014-Oct-23 08:29N 53°32' E 009°55'0 0.0
2014-Oct-23 07:29N 53°32' E 009°55'0 0.0
2014-Oct-23 06:32N 53°32' E 009°55'0 0.0
2014-Oct-23 05:29N 53°32' E 009°55'0 0.0
2014-Oct-23 04:29N 53°32' E 009°55'0 0.0
2014-Oct-23 03:29N 53°32' E 009°55'0 0.0
2014-Oct-23 02:32N 53°32' E 009°55'0 0.0
2014-Oct-23 01:29N 53°32' E 009°55'3 3.3
2014-Oct-23 00:34N 53°33' E 009°50'1111.3
2014-Oct-22 23:33N 53°37' E 009°33'1313.0
2014-Oct-22 22:33N 53°49' E 009°22'1212.4
2014-Oct-22 21:33N 53°51' E 009°02'1312.7
2014-Oct-22 20:33N 53°55' E 008°41'2512.4
2014-Oct-22 18:33N 53°59' E 007°59'9 9.0
2014-Oct-22 17:33N 54°03' E 007°45'9 9.1
2014-Oct-22 16:33N 54°08' E 007°33'3 2.7
2014-Oct-22 15:33N 54°10' E 007°29'3 3.4
2014-Oct-22 14:33N 54°07' E 007°32'5 4.8
2014-Oct-22 13:33N 54°03' E 007°37'2 2.5
2014-Oct-22 12:33N 54°02' E 007°41'3 2.9
2014-Oct-22 11:33N 54°02' E 007°46'4 4.2
2014-Oct-22 10:33N 53°60' E 007°53'3 3.1
2014-Oct-22 09:31N 53°59' E 007°58'3 3.0
2014-Oct-22 08:32N 53°58' E 008°03'5 4.8
2014-Oct-22 07:33N 53°57' E 007°55'1110.8
2014-Oct-22 06:32N 53°55' E 007°37'2116.6
2014-Oct-22 05:18N 53°50' E 007°03'1316.8
2014-Oct-22 04:33N 53°48' E 006°42'1918.7
2014-Oct-22 03:33N 53°42' E 006°12'2019.8
2014-Oct-22 02:33N 53°37' E 005°40'1919.4
2014-Oct-22 01:33N 53°30' E 005°09'1818.3
2014-Oct-22 00:33N 53°23' E 004°41'1212.2
2014-Oct-21 23:34N 53°11' E 004°34'1515.3
2014-Oct-21 22:33N 52°58' E 004°20'1514.6
2014-Oct-21 21:32N 52°46' E 004°07'1616.0
2014-Oct-21 20:33N 52°36' E 003°47'1817.8
2014-Oct-21 19:33N 52°23' E 003°26'5517.7
2014-Oct-21 16:26N 51°35' E 002°44'1213.4
2014-Oct-21 15:33N 51°23' E 002°43'1313.3
2014-Oct-21 14:33N 51°25' E 003°04'1616.1
2014-Oct-21 13:34N 51°25' E 003°30'8 7.9
2014-Oct-21 12:33N 51°25' E 003°43'10 9.9
2014-Oct-21 11:34N 51°26' E 003°58'10 9.9
2014-Oct-21 10:34N 51°22' E 004°13'3 2.9
2014-Oct-21 09:33N 51°21' E 004°17'0 0.0
2014-Oct-21 08:34N 51°21' E 004°17'2 1.9
2014-Oct-21 07:33N 51°19' E 004°19'3 3.1
2014-Oct-21 06:33N 51°17' E 004°22'0 0.0
2014-Oct-21 05:33N 51°17' E 004°22'0 0.0
2014-Oct-21 04:33N 51°17' E 004°22'0 0.0
2014-Oct-21 03:33N 51°17' E 004°22'0 0.0
2014-Oct-21 02:33N 51°17' E 004°22'0 0.0
2014-Oct-21 01:33N 51°17' E 004°22'0 0.0
2014-Oct-21 00:33N 51°17' E 004°22'  

Dump ship's entire track history